Flight Track Log - Related Links

Times and Time Zones

All times are in EDT time to prevent confusion due to time zone crossing. See the EJA951 flight status page for this flight to view local times or setup timezone preferences in your user account.

Time Position Orientation Groundspeed Altitude Reporting Facility
EDT Latitude Longitude Course Direction KTS MPH feet Rate Location/Type
Fri 11:18:23 PM 42.3833 -71.0000 53° Northeast 177 204 700  Level KA90
Fri 11:20:41 PM 42.4622 -70.8556 53° Northeast 242 278 8,500 3,214 Climbing Boston Center
Fri 11:21:39 PM 42.5283 -70.8061 29° Northeast 264 304 11,200 2,678 Climbing Boston Center
Fri 11:22:42 PM 42.6108 -70.8969 321° Northwest 243 280 13,900 2,050 Climbing Boston Center
Fri 11:23:39 PM 42.6603 -71.0031 302° West 305 351 15,300 1,678 Climbing Boston Center
Fri 11:24:40 PM 42.7203 -71.1372 301° West 374 430 17,200 1,750 Climbing Boston Center
Fri 11:25:39 PM 42.7694 -71.2522 300° West 396 456 18,800 1,664 Climbing Boston Center
Fri 11:26:39 PM 42.8083 -71.3900 291° West 394 453 20,500 1,686 Climbing Boston Center
Fri 11:27:40 PM 42.8219 -71.5342 277° West 382 440 22,200 1,770 Climbing Boston Center
Fri 11:28:41 PM 42.8292 -71.6758 274° West 377 434 24,100 1,736 Climbing Boston Center
Fri 11:29:41 PM 42.8447 -71.8200 278° West 382 440 25,700 1,576 Climbing Boston Center
Fri 11:30:39 PM 42.8581 -71.9700 277° West 395 455 27,200 1,613 Climbing Boston Center
Fri 11:31:40 PM 42.8731 -72.1456 277° West 417 480 28,900 1,328 Climbing Boston Center
Fri 11:32:41 PM 42.8900 -72.2869 279° West 423 487 29,900 1,261 Climbing Boston Center
Fri 11:33:39 PM 42.9069 -72.4514 278° West 436 502 31,400 1,261 Climbing Boston Center
Fri 11:34:40 PM 42.9214 -72.6158 277° West 441 507 32,400 1,438 Climbing Boston Center
Fri 11:35:40 PM 42.9272 -72.7803 273° West 441 507 34,300 1,388 Climbing Boston Center
Fri 11:36:41 PM 42.9411 -72.9450 277° West 441 507 35,200 1,289 Climbing Boston Center
Fri 11:37:41 PM 42.9569 -73.1322 277° West 446 513 36,900 1,210 Climbing Boston Center
Fri 11:38:40 PM 42.9703 -73.2942 276° West 446 513 37,600 807 Climbing Boston Center
Fri 11:39:40 PM 42.9772 -73.4589 273° West 441 507 38,500 700 Climbing Boston Center
Fri 11:40:40 PM 42.9903 -73.6208 276° West 441 507 39,000 595 Climbing Boston Center
Fri 11:41:41 PM 43.0031 -73.7858 276° West 441 507 39,700 496 Climbing Boston Center
Fri 11:42:41 PM 43.0178 -73.9536 277° West 446 513 40,000 102 Climbing Boston Center
Fri 11:43:39 PM 43.0278 -74.1272 275° West 446 513 39,900  Descending Boston Center
Fri 11:44:39 PM 43.0417 -74.3036 276° West 459 528 40,000 50 Climbing Boston Center
Fri 11:45:39 PM 43.0553 -74.4831 276° West 467 537 40,000  Level Boston Center
Fri 11:46:41 PM 43.0706 -74.6628 277° West 472 543 40,000  Level Boston Center
Fri 11:47:41 PM 43.0919 -74.8428 279° West 479 551 40,000  Level Boston Center
Fri 11:48:42 PM 43.1131 -75.0283 279° West 485 558 40,000  Level Boston Center
Fri 11:49:40 PM 43.1336 -75.2086 279° West 485 558 40,000  Level Boston Center
Fri 11:50:41 PM 43.1508 -75.3572 279° West 490 564 40,000  Level Boston Center
Fri 11:51:39 PM 43.1747 -75.5606 279° West 490 564 40,000  Level Boston Center
Fri 11:53:24 PM 43.2108 -75.8797 279° West 481 554 40,000  Level Cleveland Center
Fri 11:54:24 PM 43.2308 -76.0664 278° West 487 560 40,000  Level Cleveland Center
Fri 11:55:24 PM 43.2525 -76.2503 279° West 487 560 40,000 -50 Level Cleveland Center
Fri 11:56:24 PM 43.2719 -76.4400 278° West 497 572 39,900  Descending Cleveland Center
Fri 11:57:24 PM 43.2931 -76.6267 279° West 497 572 40,000 50 Climbing Cleveland Center
Fri 11:58:24 PM 43.3117 -76.8139 278° West 497 572 40,000  Level Cleveland Center
Fri 11:59:24 PM 43.3303 -77.0014 278° West 497 572 40,000  Level Cleveland Center
Sat 12:00:24 AM 43.3461 -77.1858 277° West 497 572 40,000  Level Cleveland Center
Sat 12:01:24 AM 43.3639 -77.3736 277° West 502 578 40,000  Level Cleveland Center
Sat 12:02:24 AM 43.3836 -77.5583 278° West 502 578 40,000  Level Cleveland Center
Sat 12:03:24 AM 43.4033 -77.7631 278° West 502 578 40,000  Level Cleveland Center
Sat 12:04:24 AM 43.4203 -77.9508 277° West 502 578 40,000  Level Cleveland Center
Sat 12:05:24 AM 43.4389 -78.1358 278° West 502 578 40,000  Level Cleveland Center
Sat 12:06:24 AM 43.4553 -78.3242 277° West 502 578 40,000  Level Cleveland Center
Sat 12:07:24 AM 43.4714 -78.5153 277° West 502 578 40,000  Level Cleveland Center
Sat 12:08:24 AM 43.4892 -78.7033 277° West 502 578 40,000  Level Cleveland Center
Sat 12:09:24 AM 43.5044 -78.8917 276° West 502 578 40,000  Level Cleveland Center
Sat 12:10:24 AM 43.5194 -79.0775 276° West 502 578 40,000  Level Cleveland Center
Sat 12:11:38 AM 43.5333 -79.2833 275° West 490 564 40,000  Level Toronto Center
Sat 12:12:38 AM 43.5333 -79.4667 270° West 490 564 40,000  Level Toronto Center
Sat 12:13:38 AM 43.5500 -79.6500 277° West 490 564 40,000  Level Toronto Center
Sat 12:14:38 AM 43.5667 -79.8667 276° West 500 575 40,000  Level Toronto Center
Sat 12:15:38 AM 43.5833 -80.0500 277° West 500 575 40,000  Level Toronto Center
Sat 12:16:38 AM 43.6000 -80.2333 277° West 500 575 40,000  Level Toronto Center
Sat 12:17:38 AM 43.6167 -80.4167 277° West 500 575 40,000  Level Toronto Center
Sat 12:18:38 AM 43.6333 -80.6167 277° West 500 575 40,000  Level Toronto Center
Sat 12:19:38 AM 43.6333 -80.8000 270° West 500 575 40,000  Level Toronto Center
Sat 12:20:38 AM 43.6333 -81.0000 270° West 500 575 40,000  Level Toronto Center
Sat 12:21:38 AM 43.6500 -81.1833 277° West 500 575 40,000  Level Toronto Center
Sat 12:22:38 AM 43.6667 -81.3833 277° West 510 587 40,000  Level Toronto Center
Sat 12:23:38 AM 43.6833 -81.5667 277° West 500 575 40,000  Level Toronto Center
Sat 12:24:38 AM 43.7000 -81.7833 276° West 500 575 40,000  Level Toronto Center
Sat 12:25:38 AM 43.7000 -81.9667 270° West 500 575 40,000  Level Toronto Center
Sat 12:26:38 AM 43.7167 -82.1500 277° West 500 575 40,000  Level Toronto Center
Sat 12:27:38 AM 43.7167 -82.3333 270° West 500 575 40,000  Level Toronto Center
Sat 12:28:38 AM 43.7333 -82.5333 277° West 510 587 40,000  Level Toronto Center
Sat 12:29:38 AM 43.7333 -82.7333 270° West 500 575 40,000  Level Toronto Center
Sat 12:30:30 AM 43.7606 -82.8981 283° West 500 575 40,000  Level Minneapolis Center
Sat 12:31:30 AM 43.7694 -83.0867 274° West 494 568 40,000  Level Minneapolis Center
Sat 12:32:42 AM 43.7778 -83.2739 274° West 491 565 40,000  Level Minneapolis Center
Sat 12:33:43 AM 43.7872 -83.5025 273° West 496 571 40,000  Level Minneapolis Center
Sat 12:34:43 AM 43.7950 -83.6897 273° West 492 566 40,000  Level Minneapolis Center
Sat 12:35:44 AM 43.8039 -83.8797 274° West 495 570 40,000  Level Minneapolis Center
Sat 12:36:44 AM 43.8111 -84.0717 273° West 499 574 40,000  Level Minneapolis Center
Sat 12:37:44 AM 43.8178 -84.2647 273° West 502 578 40,000  Level Minneapolis Center
Sat 12:38:45 AM 43.8250 -84.4575 273° West 504 580 40,000  Level Minneapolis Center
Sat 12:39:45 AM 43.8325 -84.6503 273° West 503 579 40,000  Level Minneapolis Center
Sat 12:40:46 AM 43.8372 -84.8428 272° West 503 579 40,000  Level Minneapolis Center
Sat 12:41:46 AM 43.8442 -85.0350 273° West 503 579 40,000  Level Minneapolis Center
Sat 12:42:46 AM 43.8489 -85.2247 272° West 499 574 40,000  Level Minneapolis Center
Sat 12:43:47 AM 43.8542 -85.4131 272° West 495 570 40,000  Level Minneapolis Center
Sat 12:44:47 AM 43.8589 -85.6025 272° West 495 570 40,000  Level Minneapolis Center
Sat 12:45:47 AM 43.8636 -85.7928 272° West 497 572 40,000  Level Minneapolis Center
Sat 12:46:48 AM 43.8686 -85.9856 272° West 500 575 40,000  Level Minneapolis Center
Sat 12:47:28 AM 43.8722 -86.1381 272° West 501 577 40,000  Level Chicago Center
Sat 12:48:29 AM 43.8756 -86.3278 271° West 499 574 40,000  Level Chicago Center
Sat 12:49:29 AM 43.8786 -86.5161 271° West 496 571 40,000  Level Chicago Center
Sat 12:50:29 AM 43.8819 -86.7044 271° West 494 568 40,000  Level Chicago Center
Sat 12:51:29 AM 43.8842 -86.8942 271° West 494 568 40,000  Level Chicago Center
Sat 12:52:30 AM 43.8858 -87.0861 271° West 500 575 40,000  Level Chicago Center
Sat 12:53:30 AM 43.8878 -87.2789 271° West 503 579 40,000  Level Chicago Center
Sat 12:54:30 AM 43.8894 -87.4794 271° West 497 572 40,000  Level Chicago Center
Sat 12:55:30 AM 43.8908 -87.6697 271° West 494 568 40,000  Level Chicago Center
Sat 12:56:31 AM 43.8925 -87.8586 271° West 492 566 40,000  Level Chicago Center
Sat 12:57:31 AM 43.8933 -88.0481 270° West 493 567 40,000  Level Chicago Center
Sat 12:58:31 AM 43.8936 -88.2389 270° West 497 572 40,000  Level Chicago Center
Sat 12:59:31 AM 43.8942 -88.4272 270° West 491 565 40,000  Level Chicago Center
Sat 01:00:31 AM 43.8939 -88.6169 270° West 493 567 40,000  Level Chicago Center
Sat 01:01:32 AM 43.8919 -88.8172 269° West 489 563 40,000  Level Chicago Center
Sat 01:02:32 AM 43.8908 -89.0047 270° West 493 567 40,000  Level Chicago Center
Sat 01:03:19 AM 43.8883 -89.1528 269° West 491 565 40,000  Level Minneapolis Center
Sat 01:04:19 AM 43.8875 -89.3394 270° West 489 563 40,000  Level Minneapolis Center
Sat 01:05:19 AM 43.8853 -89.5242 269° West 486 559 40,000  Level Minneapolis Center
Sat 01:06:32 AM 43.8828 -89.7472 269° West 488 562 40,000  Level Chicago Center
Sat 01:07:33 AM 43.8811 -89.9339 269° West 488 562 40,000  Level Chicago Center
Sat 01:08:33 AM 43.8753 -90.1192 268° West 489 563 40,000  Level Chicago Center
Sat 01:09:33 AM 43.8736 -90.3072 269° West 494 568 40,000  Level Chicago Center
Sat 01:10:33 AM 43.8694 -90.4931 268° West 489 563 40,000  Level Chicago Center
Sat 01:11:33 AM 43.8658 -90.6814 269° West 493 567 40,000  Level Chicago Center
Sat 01:12:34 AM 43.8622 -90.8694 269° West 494 568 40,000  Level Chicago Center
Sat 01:13:34 AM 43.8589 -91.0583 269° West 497 572 40,000  Level Chicago Center
Sat 01:14:34 AM 43.8547 -91.2428 268° West 490 564 40,000  Level Minneapolis Center
Sat 01:15:34 AM 43.8497 -91.4303 268° West 492 566 40,000  Level Minneapolis Center
Sat 01:16:35 AM 43.8433 -91.6556 268° West 494 568 40,000  Level Minneapolis Center
Sat 01:17:35 AM 43.8381 -91.8356 268° West 499 574 40,000  Level Minneapolis Center
Sat 01:18:35 AM 43.8319 -92.0264 268° West 496 571 40,000  Level Minneapolis Center
Sat 01:19:36 AM 43.8253 -92.2164 267° West 495 570 40,000  Level Minneapolis Center
Sat 01:20:36 AM 43.8169 -92.4069 267° West 495 570 40,000  Level Minneapolis Center
Sat 01:21:36 AM 43.8111 -92.5972 268° West 492 566 40,000  Level Minneapolis Center
Sat 01:22:36 AM 43.8053 -92.7883 268° West 497 572 40,000  Level Minneapolis Center
Sat 01:23:36 AM 43.7967 -92.9811 267° West 503 579 40,000  Level Minneapolis Center
Sat 01:24:37 AM 43.7889 -93.1756 267° West 500 575 40,000  Level Minneapolis Center
Sat 01:25:37 AM 43.7808 -93.3631 267° West 492 566 40,000  Level Minneapolis Center
Sat 01:26:37 AM 43.7725 -93.5528 267° West 493 567 40,000  Level Minneapolis Center
Sat 01:27:37 AM 43.7639 -93.7442 267° West 496 571 40,000  Level Minneapolis Center
Sat 01:28:38 AM 43.7544 -93.9314 266° West 490 564 40,000 -942 Level Minneapolis Center
Sat 01:29:38 AM 43.7450 -94.1167 266° West 484 557 38,100 -1,000 Descending Minneapolis Center
Sat 01:30:38 AM 43.7375 -94.2806 266° West 454 522 38,000 -50 Descending Minneapolis Center
Sat 01:31:38 AM 43.7281 -94.4589 266° West 463 533 38,000 -1,041 Level Minneapolis Center
Sat 01:32:39 AM 43.7192 -94.6386 266° West 468 539 35,900 -2,281 Descending Minneapolis Center
Sat 01:33:39 AM 43.7078 -94.8211 265° West 475 547 33,400 -2,500 Descending Minneapolis Center
Sat 01:34:39 AM 43.6961 -95.0167 265° West 505 581 30,900 -2,550 Descending Minneapolis Center
Sat 01:35:39 AM 43.6842 -95.2103 265° West 507 583 28,300 -2,650 Descending Minneapolis Center
Sat 01:36:39 AM 43.6761 -95.3817 266° West 459 528 25,600 -2,777 Descending Minneapolis Center
Sat 01:37:40 AM 43.6767 -95.5467 270° West 433 498 22,700 -2,926 Descending Minneapolis Center
Sat 01:38:40 AM 43.6742 -95.7136 269° West 435 501 19,700 -2,900 Descending Minneapolis Center
Sat 01:39:40 AM 43.6717 -95.8781 269° West 430 495 16,900 -2,650 Descending Minneapolis Center
Sat 01:40:40 AM 43.6694 -96.0222 269° West 387 445 14,400 -2,300 Descending Minneapolis Center
Sat 01:41:40 AM 43.6692 -96.1375 270° West 316 364 12,300 -1,983 Descending Minneapolis Center
Sat 01:42:41 AM 43.6661 -96.2494 268° West 297 342 10,400 -1,884 Descending Minneapolis Center
Sat 01:43:41 AM 43.6653 -96.3597 269° West 291 335 8,500 -1,900 Descending Minneapolis Center
Sat 01:45:00 AM 43.6224 -96.5575 270° West  Level Estimated
Sat 01:52:00 AM 43.5667 -96.7333 235° Southwest  Level FlightAware Approximate

Login

Don't have an account? Register now (free) for customized features, flight alerts, and more!